sensor_id;sensor_type;location;lat;lon;timestamp;pressure;altitude;pressure_sealevel;temperature;humidity
34297;BME280;20564;42.902;25.336;2022-07-06T00:02:23;97190.13;;;22.09;82.47
34297;BME280;20564;42.902;25.336;2022-07-06T00:04:50;97194.03;;;22.13;81.81
34297;BME280;20564;42.902;25.336;2022-07-06T00:07:17;97193.81;;;22.21;80.97
34297;BME280;20564;42.902;25.336;2022-07-06T00:09:44;97188.69;;;22.20;80.68
34297;BME280;20564;42.902;25.336;2022-07-06T00:12:12;97180.41;;;22.21;80.71
34297;BME280;20564;42.902;25.336;2022-07-06T00:14:40;97181.03;;;22.23;81.00
34297;BME280;20564;42.902;25.336;2022-07-06T00:17:10;97185.50;;;22.29;80.32
34297;BME280;20564;42.902;25.336;2022-07-06T00:19:37;97180.16;;;22.29;79.84
34297;BME280;20564;42.902;25.336;2022-07-06T00:22:04;97168.59;;;22.29;80.93
34297;BME280;20564;42.902;25.336;2022-07-06T00:24:31;97167.63;;;22.23;80.41
34297;BME280;20564;42.902;25.336;2022-07-06T00:26:58;97163.91;;;22.24;80.14
34297;BME280;20564;42.902;25.336;2022-07-06T00:29:25;97166.19;;;22.21;80.15
34297;BME280;20564;42.902;25.336;2022-07-06T00:31:52;97159.09;;;22.33;79.12
34297;BME280;20564;42.902;25.336;2022-07-06T00:34:19;97158.03;;;22.34;79.90
34297;BME280;20564;42.902;25.336;2022-07-06T00:36:48;97153.72;;;22.33;80.27
34297;BME280;20564;42.902;25.336;2022-07-06T00:39:15;97147.81;;;22.24;80.53
34297;BME280;20564;42.902;25.336;2022-07-06T00:41:42;97145.94;;;22.25;79.49
34297;BME280;20564;42.902;25.336;2022-07-06T00:44:09;97140.63;;;22.18;80.53
34297;BME280;20564;42.902;25.336;2022-07-06T00:46:36;97133.81;;;22.15;80.67
34297;BME280;20564;42.902;25.336;2022-07-06T00:49:04;97128.25;;;22.10;80.62
34297;BME280;20564;42.902;25.336;2022-07-06T00:51:35;97128.09;;;22.05;79.73
34297;BME280;20564;42.902;25.336;2022-07-06T00:54:15;97124.59;;;22.05;80.73
34297;BME280;20564;42.902;25.336;2022-07-06T00:56:42;97121.53;;;22.01;82.35
34297;BME280;20564;42.902;25.336;2022-07-06T00:59:09;97119.47;;;21.97;81.53
34297;BME280;20564;42.902;25.336;2022-07-06T01:01:36;97115.41;;;21.87;82.84
34297;BME280;20564;42.902;25.336;2022-07-06T01:04:03;97123.47;;;21.81;82.38
34297;BME280;20564;42.902;25.336;2022-07-06T01:06:30;97124.69;;;21.78;83.21
34297;BME280;20564;42.902;25.336;2022-07-06T01:08:59;97115.66;;;21.79;84.14
34297;BME280;20564;42.902;25.336;2022-07-06T01:11:29;97117.69;;;21.77;83.78
34297;BME280;20564;42.902;25.336;2022-07-06T01:13:59;97110.72;;;21.76;84.17
34297;BME280;20564;42.902;25.336;2022-07-06T01:16:45;97111.97;;;21.67;83.95
34297;BME280;20564;42.902;25.336;2022-07-06T01:19:12;97114.06;;;21.65;86.06
34297;BME280;20564;42.902;25.336;2022-07-06T01:21:40;97110.78;;;21.56;86.22
34297;BME280;20564;42.902;25.336;2022-07-06T01:24:08;97105.44;;;21.50;85.70
34297;BME280;20564;42.902;25.336;2022-07-06T01:26:35;97098.84;;;21.46;85.58
34297;BME280;20564;42.902;25.336;2022-07-06T01:29:02;97101.78;;;21.37;86.28
34297;BME280;20564;42.902;25.336;2022-07-06T01:31:30;97101.34;;;21.27;86.32
34297;BME280;20564;42.902;25.336;2022-07-06T01:33:57;97097.44;;;21.30;86.64
34297;BME280;20564;42.902;25.336;2022-07-06T01:36:24;97098.25;;;21.30;87.90
34297;BME280;20564;42.902;25.336;2022-07-06T01:38:56;97092.31;;;21.28;86.73
34297;BME280;20564;42.902;25.336;2022-07-06T01:41:26;97089.66;;;21.15;87.29
34297;BME280;20564;42.902;25.336;2022-07-06T01:43:53;97092.97;;;21.04;88.07
34297;BME280;20564;42.902;25.336;2022-07-06T01:46:20;97091.75;;;21.00;88.21
34297;BME280;20564;42.902;25.336;2022-07-06T01:48:47;97101.81;;;21.11;88.38
34297;BME280;20564;42.902;25.336;2022-07-06T01:51:15;97095.66;;;21.04;87.78
34297;BME280;20564;42.902;25.336;2022-07-06T01:53:42;97101.41;;;21.01;88.17
34297;BME280;20564;42.902;25.336;2022-07-06T01:56:10;97092.59;;;20.87;88.56
34297;BME280;20564;42.902;25.336;2022-07-06T01:58:38;97088.69;;;20.76;88.93
34297;BME280;20564;42.902;25.336;2022-07-06T02:01:10;97085.41;;;20.67;89.67
34297;BME280;20564;42.902;25.336;2022-07-06T02:03:38;97085.00;;;20.64;89.64
34297;BME280;20564;42.902;25.336;2022-07-06T02:06:06;97084.81;;;20.59;90.35
34297;BME280;20564;42.902;25.336;2022-07-06T02:08:33;97087.47;;;20.59;90.35
34297;BME280;20564;42.902;25.336;2022-07-06T02:11:03;97079.81;;;20.49;90.81
34297;BME280;20564;42.902;25.336;2022-07-06T02:13:30;97072.19;;;20.39;91.06
34297;BME280;20564;42.902;25.336;2022-07-06T02:15:57;97078.81;;;20.37;91.21
34297;BME280;20564;42.902;25.336;2022-07-06T02:18:25;97077.75;;;20.31;91.65
34297;BME280;20564;42.902;25.336;2022-07-06T02:20:53;97067.28;;;20.30;91.89
34297;BME280;20564;42.902;25.336;2022-07-06T02:23:20;97067.47;;;20.28;91.76
34297;BME280;20564;42.902;25.336;2022-07-06T02:25:48;97068.06;;;20.17;92.07
34297;BME280;20564;42.902;25.336;2022-07-06T02:28:15;97063.97;;;20.08;92.77
34297;BME280;20564;42.902;25.336;2022-07-06T02:30:43;97068.47;;;20.14;92.79
34297;BME280;20564;42.902;25.336;2022-07-06T02:33:10;97060.69;;;20.19;92.42
34297;BME280;20564;42.902;25.336;2022-07-06T02:35:37;97060.69;;;20.12;92.70
34297;BME280;20564;42.902;25.336;2022-07-06T02:38:09;97065.38;;;20.04;93.13
34297;BME280;20564;42.902;25.336;2022-07-06T02:40:37;97052.00;;;19.90;93.63
34297;BME280;20564;42.902;25.336;2022-07-06T02:43:05;97057.97;;;19.92;93.66
34297;BME280;20564;42.902;25.336;2022-07-06T02:45:32;97061.91;;;19.96;93.41
34297;BME280;20564;42.902;25.336;2022-07-06T02:48:00;97059.38;;;19.88;93.68
34297;BME280;20564;42.902;25.336;2022-07-06T02:50:26;97059.78;;;19.85;94.29
34297;BME280;20564;42.902;25.336;2022-07-06T02:52:54;97051.13;;;19.70;94.72
34297;BME280;20564;42.902;25.336;2022-07-06T02:55:22;97050.28;;;19.63;95.40
34297;BME280;20564;42.902;25.336;2022-07-06T02:57:49;97050.72;;;19.73;95.20
34297;BME280;20564;42.902;25.336;2022-07-06T03:00:16;97048.25;;;19.65;94.90
34297;BME280;20564;42.902;25.336;2022-07-06T03:02:43;97053.09;;;19.55;95.39
34297;BME280;20564;42.902;25.336;2022-07-06T03:05:11;97059.28;;;19.62;95.84
34297;BME280;20564;42.902;25.336;2022-07-06T03:07:38;97064.28;;;19.65;95.63
34297;BME280;20564;42.902;25.336;2022-07-06T03:10:05;97056.41;;;19.57;95.84
34297;BME280;20564;42.902;25.336;2022-07-06T03:12:33;97066.66;;;19.60;96.47
34297;BME280;20564;42.902;25.336;2022-07-06T03:15:00;97062.53;;;19.50;96.16
34297;BME280;20564;42.902;25.336;2022-07-06T03:17:27;97070.34;;;19.52;96.46
34297;BME280;20564;42.902;25.336;2022-07-06T03:19:54;97071.41;;;19.58;96.11
34297;BME280;20564;42.902;25.336;2022-07-06T03:22:21;97078.38;;;19.59;96.40
34297;BME280;20564;42.902;25.336;2022-07-06T03:24:50;97083.13;;;19.57;96.06
34297;BME280;20564;42.902;25.336;2022-07-06T03:27:17;97076.09;;;19.56;96.22
34297;BME280;20564;42.902;25.336;2022-07-06T03:29:44;97072.44;;;19.57;95.89
34297;BME280;20564;42.902;25.336;2022-07-06T03:32:11;97079.81;;;19.55;96.61
34297;BME280;20564;42.902;25.336;2022-07-06T03:34:41;97085.31;;;19.46;96.73
34297;BME280;20564;42.902;25.336;2022-07-06T03:37:08;97092.09;;;19.42;97.11
34297;BME280;20564;42.902;25.336;2022-07-06T03:39:35;97089.03;;;19.45;97.61
34297;BME280;20564;42.902;25.336;2022-07-06T03:42:02;97092.75;;;19.58;97.10
34297;BME280;20564;42.902;25.336;2022-07-06T03:44:30;97105.97;;;19.66;97.24
34297;BME280;20564;42.902;25.336;2022-07-06T03:46:57;97093.03;;;19.69;96.16
34297;BME280;20564;42.902;25.336;2022-07-06T03:49:24;97101.69;;;19.78;96.38
34297;BME280;20564;42.902;25.336;2022-07-06T03:51:53;97101.69;;;19.71;96.49
34297;BME280;20564;42.902;25.336;2022-07-06T03:54:21;97098.44;;;19.83;96.49
34297;BME280;20564;42.902;25.336;2022-07-06T03:56:48;97089.16;;;19.85;96.06
34297;BME280;20564;42.902;25.336;2022-07-06T03:59:16;97097.59;;;19.89;96.87
34297;BME280;20564;42.902;25.336;2022-07-06T04:01:43;97096.22;;;20.06;96.30
34297;BME280;20564;42.902;25.336;2022-07-06T04:04:10;97096.28;;;20.26;94.93
34297;BME280;20564;42.902;25.336;2022-07-06T04:06:37;97092.34;;;20.35;94.23
34297;BME280;20564;42.902;25.336;2022-07-06T04:09:04;97109.06;;;20.51;94.36
34297;BME280;20564;42.902;25.336;2022-07-06T04:11:32;97101.03;;;20.70;92.91
34297;BME280;20564;42.902;25.336;2022-07-06T04:13:59;97100.19;;;20.97;92.13
34297;BME280;20564;42.902;25.336;2022-07-06T04:16:26;97103.84;;;21.22;90.34
34297;BME280;20564;42.902;25.336;2022-07-06T04:18:53;97102.41;;;21.39;89.13
34297;BME280;20564;42.902;25.336;2022-07-06T04:21:20;97095.91;;;21.60;87.28
34297;BME280;20564;42.902;25.336;2022-07-06T04:23:49;97094.13;;;21.92;85.00
34297;BME280;20564;42.902;25.336;2022-07-06T04:26:16;97090.91;;;22.15;83.16
34297;BME280;20564;42.902;25.336;2022-07-06T04:28:43;97099.56;;;22.24;83.38
34297;BME280;20564;42.902;25.336;2022-07-06T04:31:11;97105.25;;;22.34;82.02
34297;BME280;20564;42.902;25.336;2022-07-06T04:33:42;97095.91;;;22.44;80.95
34297;BME280;20564;42.902;25.336;2022-07-06T04:36:09;97110.47;;;22.54;80.25
34297;BME280;20564;42.902;25.336;2022-07-06T04:38:37;97101.19;;;22.57;80.47
34297;BME280;20564;42.902;25.336;2022-07-06T04:41:04;97110.28;;;22.74;80.81
34297;BME280;20564;42.902;25.336;2022-07-06T04:43:34;97106.66;;;22.94;79.28
34297;BME280;20564;42.902;25.336;2022-07-06T04:46:01;97117.72;;;23.04;80.78
34297;BME280;20564;42.902;25.336;2022-07-06T04:48:28;97116.81;;;23.10;80.46
34297;BME280;20564;42.902;25.336;2022-07-06T04:50:55;97110.44;;;23.29;78.71
34297;BME280;20564;42.902;25.336;2022-07-06T04:53:22;97095.91;;;23.37;78.72
34297;BME280;20564;42.902;25.336;2022-07-06T04:55:49;97100.16;;;23.45;78.63
34297;BME280;20564;42.902;25.336;2022-07-06T04:58:16;97096.41;;;23.46;78.23
34297;BME280;20564;42.902;25.336;2022-07-06T05:00:43;97105.53;;;23.63;77.20
34297;BME280;20564;42.902;25.336;2022-07-06T05:03:11;97108.13;;;23.88;75.10
34297;BME280;20564;42.902;25.336;2022-07-06T05:05:38;97099.34;;;24.11;74.32
34297;BME280;20564;42.902;25.336;2022-07-06T05:08:05;97100.91;;;24.30;73.59
34297;BME280;20564;42.902;25.336;2022-07-06T05:10:32;97097.97;;;24.62;72.27
34297;BME280;20564;42.902;25.336;2022-07-06T05:12:59;97102.69;;;25.02;71.13
34297;BME280;20564;42.902;25.336;2022-07-06T05:15:27;97107.94;;;25.44;69.29
34297;BME280;20564;42.902;25.336;2022-07-06T05:17:54;97111.78;;;25.71;68.42
34297;BME280;20564;42.902;25.336;2022-07-06T05:20:21;97108.72;;;25.68;67.65
34297;BME280;20564;42.902;25.336;2022-07-06T05:22:48;97104.72;;;25.70;66.66
34297;BME280;20564;42.902;25.336;2022-07-06T05:25:15;97104.25;;;25.73;66.59
34297;BME280;20564;42.902;25.336;2022-07-06T05:27:42;97119.03;;;25.83;66.40
34297;BME280;20564;42.902;25.336;2022-07-06T05:30:10;97117.16;;;25.71;64.54
34297;BME280;20564;42.902;25.336;2022-07-06T05:32:37;97119.66;;;25.61;64.77
34297;BME280;20564;42.902;25.336;2022-07-06T05:35:05;97121.06;;;25.64;65.40
34297;BME280;20564;42.902;25.336;2022-07-06T05:37:52;97128.66;;;25.55;64.36
34297;BME280;20564;42.902;25.336;2022-07-06T05:40:19;97129.50;;;25.44;64.36
34297;BME280;20564;42.902;25.336;2022-07-06T05:42:46;97139.84;;;25.35;65.26
34297;BME280;20564;42.902;25.336;2022-07-06T05:45:13;97137.25;;;25.29;66.02
34297;BME280;20564;42.902;25.336;2022-07-06T05:47:40;97133.88;;;25.21;66.78
34297;BME280;20564;42.902;25.336;2022-07-06T05:50:26;97141.03;;;25.16;68.10
34297;BME280;20564;42.902;25.336;2022-07-06T05:52:58;97146.28;;;25.11;67.41
34297;BME280;20564;42.902;25.336;2022-07-06T05:55:36;97145.56;;;25.15;66.98
34297;BME280;20564;42.902;25.336;2022-07-06T05:58:03;97142.31;;;25.13;66.82
34297;BME280;20564;42.902;25.336;2022-07-06T06:00:30;97137.72;;;25.14;66.95
34297;BME280;20564;42.902;25.336;2022-07-06T06:02:59;97147.94;;;25.23;66.98
34297;BME280;20564;42.902;25.336;2022-07-06T06:05:26;97145.09;;;25.30;67.11
34297;BME280;20564;42.902;25.336;2022-07-06T06:07:53;97134.78;;;25.39;66.63
34297;BME280;20564;42.902;25.336;2022-07-06T06:10:21;97134.97;;;25.72;66.09
34297;BME280;20564;42.902;25.336;2022-07-06T06:12:48;97128.16;;;26.22;65.00
34297;BME280;20564;42.902;25.336;2022-07-06T06:15:16;97133.72;;;26.61;64.79
34297;BME280;20564;42.902;25.336;2022-07-06T06:17:44;97135.53;;;26.89;63.06
34297;BME280;20564;42.902;25.336;2022-07-06T06:20:14;97127.09;;;27.36;60.99
34297;BME280;20564;42.902;25.336;2022-07-06T06:22:51;97134.53;;;27.68;59.51
34297;BME280;20564;42.902;25.336;2022-07-06T06:25:28;97130.09;;;27.78;58.75
34297;BME280;20564;42.902;25.336;2022-07-06T06:27:56;97127.66;;;27.77;58.33
34297;BME280;20564;42.902;25.336;2022-07-06T06:30:23;97137.00;;;27.69;58.23
34297;BME280;20564;42.902;25.336;2022-07-06T06:32:50;97125.69;;;27.72;57.71
34297;BME280;20564;42.902;25.336;2022-07-06T06:35:17;97129.03;;;27.57;58.53
34297;BME280;20564;42.902;25.336;2022-07-06T06:37:44;97127.81;;;27.48;60.52
34297;BME280;20564;42.902;25.336;2022-07-06T06:40:11;97123.19;;;27.27;59.11
34297;BME280;20564;42.902;25.336;2022-07-06T06:42:38;97127.59;;;27.16;60.69
34297;BME280;20564;42.902;25.336;2022-07-06T06:45:06;97132.19;;;26.82;61.11
34297;BME280;20564;42.902;25.336;2022-07-06T06:47:33;97129.41;;;26.60;61.64
34297;BME280;20564;42.902;25.336;2022-07-06T06:50:00;97132.91;;;26.60;62.31
34297;BME280;20564;42.902;25.336;2022-07-06T06:52:27;97129.88;;;26.57;61.66
34297;BME280;20564;42.902;25.336;2022-07-06T06:55:10;97123.00;;;26.49;61.88
34297;BME280;20564;42.902;25.336;2022-07-06T06:57:37;97119.53;;;26.37;62.55
34297;BME280;20564;42.902;25.336;2022-07-06T07:00:04;97133.16;;;26.30;63.64
34297;BME280;20564;42.902;25.336;2022-07-06T07:02:32;97127.66;;;26.25;63.90
34297;BME280;20564;42.902;25.336;2022-07-06T07:04:59;97127.44;;;26.27;63.45
34297;BME280;20564;42.902;25.336;2022-07-06T07:07:26;97129.78;;;26.23;63.20
34297;BME280;20564;42.902;25.336;2022-07-06T07:09:53;97119.81;;;26.24;63.19
34297;BME280;20564;42.902;25.336;2022-07-06T07:12:21;97126.69;;;26.14;65.25
34297;BME280;20564;42.902;25.336;2022-07-06T07:14:48;97127.75;;;26.02;65.08
34297;BME280;20564;42.902;25.336;2022-07-06T07:17:15;97138.22;;;25.98;66.47
34297;BME280;20564;42.902;25.336;2022-07-06T07:19:42;97137.31;;;25.81;66.14
34297;BME280;20564;42.902;25.336;2022-07-06T07:22:09;97142.47;;;25.70;65.63
34297;BME280;20564;42.902;25.336;2022-07-06T07:24:37;97145.53;;;25.62;65.31
34297;BME280;20564;42.902;25.336;2022-07-06T07:27:04;97141.56;;;25.53;66.01
34297;BME280;20564;42.902;25.336;2022-07-06T07:29:31;97146.97;;;25.53;66.36
34297;BME280;20564;42.902;25.336;2022-07-06T07:31:59;97144.97;;;25.60;66.60
34297;BME280;20564;42.902;25.336;2022-07-06T07:34:26;97141.69;;;25.58;67.73
34297;BME280;20564;42.902;25.336;2022-07-06T07:36:53;97146.84;;;25.60;66.23
34297;BME280;20564;42.902;25.336;2022-07-06T07:39:20;97152.72;;;25.45;67.15
34297;BME280;20564;42.902;25.336;2022-07-06T07:41:47;97148.84;;;25.41;67.52
34297;BME280;20564;42.902;25.336;2022-07-06T07:44:17;97141.47;;;25.36;66.52
34297;BME280;20564;42.902;25.336;2022-07-06T07:46:44;97156.81;;;25.36;67.27
34297;BME280;20564;42.902;25.336;2022-07-06T07:49:11;97152.50;;;25.23;66.33
34297;BME280;20564;42.902;25.336;2022-07-06T07:51:49;97155.31;;;25.16;66.84
34297;BME280;20564;42.902;25.336;2022-07-06T07:54:16;97158.28;;;24.96;68.28
34297;BME280;20564;42.902;25.336;2022-07-06T07:56:43;97156.41;;;24.85;67.59
34297;BME280;20564;42.902;25.336;2022-07-06T07:59:11;97146.00;;;24.89;68.17
34297;BME280;20564;42.902;25.336;2022-07-06T08:01:38;97161.69;;;24.92;68.72
34297;BME280;20564;42.902;25.336;2022-07-06T08:04:05;97156.31;;;24.92;68.04
34297;BME280;20564;42.902;25.336;2022-07-06T08:06:32;97157.38;;;24.91;68.23
34297;BME280;20564;42.902;25.336;2022-07-06T08:08:59;97158.88;;;24.87;68.32
34297;BME280;20564;42.902;25.336;2022-07-06T08:11:27;97151.97;;;24.91;68.38
34297;BME280;20564;42.902;25.336;2022-07-06T08:13:54;97157.59;;;24.89;68.45
34297;BME280;20564;42.902;25.336;2022-07-06T08:16:22;97155.94;;;24.88;69.22
34297;BME280;20564;42.902;25.336;2022-07-06T08:18:50;97157.94;;;24.93;69.05
34297;BME280;20564;42.902;25.336;2022-07-06T08:21:17;97160.16;;;24.96;68.31
34297;BME280;20564;42.902;25.336;2022-07-06T08:24:04;97164.28;;;24.98;68.35
34297;BME280;20564;42.902;25.336;2022-07-06T08:26:32;97162.41;;;24.99;68.18
34297;BME280;20564;42.902;25.336;2022-07-06T08:28:59;97149.84;;;25.05;68.26
34297;BME280;20564;42.902;25.336;2022-07-06T08:31:26;97154.13;;;25.12;67.88
34297;BME280;20564;42.902;25.336;2022-07-06T08:34:14;97156.44;;;25.09;67.67
34297;BME280;20564;42.902;25.336;2022-07-06T08:36:41;97158.47;;;25.13;68.29
34297;BME280;20564;42.902;25.336;2022-07-06T08:39:08;97160.81;;;25.21;67.92
34297;BME280;20564;42.902;25.336;2022-07-06T08:41:36;97158.91;;;25.34;67.60
34297;BME280;20564;42.902;25.336;2022-07-06T08:44:05;97162.56;;;25.39;66.58
34297;BME280;20564;42.902;25.336;2022-07-06T08:46:33;97165.72;;;25.48;68.63
34297;BME280;20564;42.902;25.336;2022-07-06T08:49:01;97176.25;;;25.61;66.54
34297;BME280;20564;42.902;25.336;2022-07-06T08:51:29;97171.81;;;25.79;66.09
34297;BME280;20564;42.902;25.336;2022-07-06T08:53:56;97173.19;;;25.93;66.43
34297;BME280;20564;42.902;25.336;2022-07-06T08:56:24;97173.88;;;25.77;65.26
34297;BME280;20564;42.902;25.336;2022-07-06T08:58:52;97176.47;;;25.71;65.29
34297;BME280;20564;42.902;25.336;2022-07-06T09:01:21;97178.47;;;25.64;66.06
34297;BME280;20564;42.902;25.336;2022-07-06T09:03:49;97186.56;;;25.64;64.97
34297;BME280;20564;42.902;25.336;2022-07-06T09:06:24;97183.38;;;25.56;64.98
34297;BME280;20564;42.902;25.336;2022-07-06T09:08:54;97185.88;;;25.57;65.78
34297;BME280;20564;42.902;25.336;2022-07-06T09:11:22;97191.72;;;25.54;65.08
34297;BME280;20564;42.902;25.336;2022-07-06T09:13:51;97187.97;;;25.55;65.14
34297;BME280;20564;42.902;25.336;2022-07-06T09:16:28;97191.94;;;25.41;64.91
34297;BME280;20564;42.902;25.336;2022-07-06T09:19:07;97192.41;;;25.26;65.43
34297;BME280;20564;42.902;25.336;2022-07-06T09:21:34;97184.69;;;25.18;64.67
34297;BME280;20564;42.902;25.336;2022-07-06T09:24:09;97192.28;;;24.97;63.92
34297;BME280;20564;42.902;25.336;2022-07-06T09:26:38;97198.22;;;24.88;64.78
34297;BME280;20564;42.902;25.336;2022-07-06T09:29:05;97199.84;;;24.89;65.22
34297;BME280;20564;42.902;25.336;2022-07-06T09:31:34;97199.84;;;24.89;66.15
34297;BME280;20564;42.902;25.336;2022-07-06T09:34:07;97200.31;;;24.86;66.07
34297;BME280;20564;42.902;25.336;2022-07-06T09:39:28;97198.91;;;24.83;65.73
34297;BME280;20564;42.902;25.336;2022-07-06T09:41:57;97197.03;;;24.84;66.61
34297;BME280;20564;42.902;25.336;2022-07-06T09:46:55;97195.38;;;24.83;66.86
34297;BME280;20564;42.902;25.336;2022-07-06T09:49:23;97195.25;;;24.77;65.71
34297;BME280;20564;42.902;25.336;2022-07-06T09:51:50;97183.91;;;24.75;64.97
34297;BME280;20564;42.902;25.336;2022-07-06T09:54:18;97184.38;;;24.72;64.79
34297;BME280;20564;42.902;25.336;2022-07-06T09:56:47;97180.16;;;24.76;65.15
34297;BME280;20564;42.902;25.336;2022-07-06T09:59:26;97181.91;;;24.83;64.82
34297;BME280;20564;42.902;25.336;2022-07-06T10:01:55;97183.44;;;24.78;65.56
34297;BME280;20564;42.902;25.336;2022-07-06T10:04:26;97192.47;;;24.96;66.72
34297;BME280;20564;42.902;25.336;2022-07-06T10:06:55;97183.59;;;25.07;67.25
34297;BME280;20564;42.902;25.336;2022-07-06T10:09:24;97190.69;;;25.20;65.62
34297;BME280;20564;42.902;25.336;2022-07-06T10:11:56;97184.47;;;25.19;63.89
34297;BME280;20564;42.902;25.336;2022-07-06T10:14:44;97178.63;;;25.34;65.28
34297;BME280;20564;42.902;25.336;2022-07-06T10:17:18;97172.41;;;25.45;64.78
34297;BME280;20564;42.902;25.336;2022-07-06T10:19:47;97174.97;;;25.64;64.54
34297;BME280;20564;42.902;25.336;2022-07-06T10:22:16;97179.28;;;25.77;63.35
34297;BME280;20564;42.902;25.336;2022-07-06T10:24:46;97168.81;;;25.92;63.35
34297;BME280;20564;42.902;25.336;2022-07-06T10:27:15;97164.28;;;26.21;62.31
34297;BME280;20564;42.902;25.336;2022-07-06T10:29:44;97155.31;;;26.32;60.94
34297;BME280;20564;42.902;25.336;2022-07-06T10:32:12;97149.69;;;26.62;60.45
34297;BME280;20564;42.902;25.336;2022-07-06T10:34:40;97152.25;;;26.86;60.24
34297;BME280;20564;42.902;25.336;2022-07-06T10:37:24;97153.31;;;27.19;59.54
34297;BME280;20564;42.902;25.336;2022-07-06T10:39:53;97155.38;;;27.28;57.52
34297;BME280;20564;42.902;25.336;2022-07-06T10:42:46;97147.38;;;27.38;57.20
34297;BME280;20564;42.902;25.336;2022-07-06T10:50:46;97145.03;;;27.81;56.63
34297;BME280;20564;42.902;25.336;2022-07-06T10:53:23;97143.22;;;27.70;56.26
34297;BME280;20564;42.902;25.336;2022-07-06T10:55:54;97139.56;;;27.76;55.87
34297;BME280;20564;42.902;25.336;2022-07-06T11:01:10;97141.38;;;27.53;56.65
34297;BME280;20564;42.902;25.336;2022-07-06T11:03:45;97139.44;;;27.49;56.33
34297;BME280;20564;42.902;25.336;2022-07-06T11:08:42;97137.94;;;27.19;56.34
34297;BME280;20564;42.902;25.336;2022-07-06T11:11:14;97142.16;;;26.98;57.67
34297;BME280;20564;42.902;25.336;2022-07-06T11:13:55;97136.28;;;27.01;59.81
34297;BME280;20564;42.902;25.336;2022-07-06T11:16:24;97138.31;;;26.94;60.39
34297;BME280;20564;42.902;25.336;2022-07-06T11:19:18;97130.16;;;26.89;60.70
34297;BME280;20564;42.902;25.336;2022-07-06T11:21:57;97143.00;;;26.82;59.82
34297;BME280;20564;42.902;25.336;2022-07-06T11:24:29;97130.38;;;26.71;60.63
34297;BME280;20564;42.902;25.336;2022-07-06T11:26:58;97140.03;;;26.66;61.38
34297;BME280;20564;42.902;25.336;2022-07-06T11:29:27;97132.00;;;26.72;61.19
34297;BME280;20564;42.902;25.336;2022-07-06T11:31:58;97135.13;;;26.63;60.67
34297;BME280;20564;42.902;25.336;2022-07-06T11:34:32;97127.75;;;26.59;61.64
34297;BME280;20564;42.902;25.336;2022-07-06T11:37:02;97130.13;;;26.55;62.44
34297;BME280;20564;42.902;25.336;2022-07-06T11:39:35;97136.56;;;26.54;62.77
34297;BME280;20564;42.902;25.336;2022-07-06T11:42:03;97122.78;;;26.39;63.15
34297;BME280;20564;42.902;25.336;2022-07-06T11:44:34;97125.59;;;26.15;63.11
34297;BME280;20564;42.902;25.336;2022-07-06T11:47:03;97130.06;;;26.10;62.79
34297;BME280;20564;42.902;25.336;2022-07-06T11:49:31;97124.34;;;26.06;63.35
34297;BME280;20564;42.902;25.336;2022-07-06T11:51:59;97124.72;;;25.98;65.04
34297;BME280;20564;42.902;25.336;2022-07-06T11:54:26;97125.44;;;25.93;65.14
34297;BME280;20564;42.902;25.336;2022-07-06T11:56:59;97119.03;;;25.83;64.80
34297;BME280;20564;42.902;25.336;2022-07-06T11:59:32;97118.56;;;25.86;65.26
34297;BME280;20564;42.902;25.336;2022-07-06T12:02:11;97123.13;;;25.73;65.71
34297;BME280;20564;42.902;25.336;2022-07-06T12:04:43;97119.75;;;25.66;65.89
34297;BME280;20564;42.902;25.336;2022-07-06T12:07:13;97114.94;;;25.68;68.52
34297;BME280;20564;42.902;25.336;2022-07-06T12:09:42;97118.09;;;25.65;67.76
34297;BME280;20564;42.902;25.336;2022-07-06T12:12:10;97122.59;;;25.60;66.52
34297;BME280;20564;42.902;25.336;2022-07-06T12:14:39;97118.84;;;25.49;67.58
34297;BME280;20564;42.902;25.336;2022-07-06T12:17:09;97112.16;;;25.52;68.19
34297;BME280;20564;42.902;25.336;2022-07-06T12:19:37;97111.00;;;25.47;66.39
34297;BME280;20564;42.902;25.336;2022-07-06T12:22:05;97108.41;;;25.53;64.85
34297;BME280;20564;42.902;25.336;2022-07-06T12:24:34;97104.31;;;25.50;64.62
34297;BME280;20564;42.902;25.336;2022-07-06T12:27:19;97102.78;;;25.54;66.15
34297;BME280;20564;42.902;25.336;2022-07-06T12:29:47;97097.38;;;25.54;65.65
34297;BME280;20564;42.902;25.336;2022-07-06T12:32:22;97095.63;;;25.48;65.79
34297;BME280;20564;42.902;25.336;2022-07-06T12:35:06;97097.38;;;25.54;66.27
34297;BME280;20564;42.902;25.336;2022-07-06T12:37:34;97094.47;;;25.44;66.45
34297;BME280;20564;42.902;25.336;2022-07-06T12:40:13;97078.44;;;25.49;66.41
34297;BME280;20564;42.902;25.336;2022-07-06T12:42:47;97086.88;;;25.53;65.84
34297;BME280;20564;42.902;25.336;2022-07-06T12:45:16;97074.28;;;25.58;66.93
34297;BME280;20564;42.902;25.336;2022-07-06T12:48:05;97069.78;;;25.76;63.95
34297;BME280;20564;42.902;25.336;2022-07-06T12:50:37;97072.56;;;25.92;65.39
34297;BME280;20564;42.902;25.336;2022-07-06T12:53:06;97066.47;;;25.97;64.66
34297;BME280;20564;42.902;25.336;2022-07-06T12:56:08;97052.03;;;26.20;63.81
34297;BME280;20564;42.902;25.336;2022-07-06T12:58:35;97054.91;;;26.30;62.64
34297;BME280;20564;42.902;25.336;2022-07-06T13:01:02;97053.63;;;26.33;62.35
34297;BME280;20564;42.902;25.336;2022-07-06T13:03:40;97055.59;;;26.54;63.36
34297;BME280;20564;42.902;25.336;2022-07-06T13:06:07;97057.16;;;26.67;62.18
34297;BME280;20564;42.902;25.336;2022-07-06T13:08:34;97063.59;;;26.83;60.90
34297;BME280;20564;42.902;25.336;2022-07-06T13:11:01;97057.50;;;27.09;60.40
34297;BME280;20564;42.902;25.336;2022-07-06T13:13:28;97062.22;;;27.36;59.90
34297;BME280;20564;42.902;25.336;2022-07-06T13:15:55;97051.75;;;27.83;58.04
34297;BME280;20564;42.902;25.336;2022-07-06T13:18:23;97043.69;;;28.16;56.15